Terminal Aerodrome Forecast
Issued by NWS Lake Charles, LA

Home | Current Version | Previous Version | Text Only | Print | Product List | Glossary On
Versions: 1 2 3 4 5 6 7 8 9 10 11 12 13 14 15 16 17 18 19
000
FTUS44 KLCH 160500
TAFLCH
TAF
KLCH 160520Z 1606/1706 VRB03KT P6SM SCT040 BKN250
      TEMPO 1610/1613 5SM BR
     FM161300 07005KT P6SM VCSH FEW025 SCT250
     FM161700 13007KT P6SM VCTS BKN035CB
     FM170200 VRB04KT P6SM SCT030 BKN200=

USA.gov is the U.S. government's official web portal to all federal, state and local government web resources and services.